sensor_id;sensor_type;location;lat;lon;timestamp;temperature;humidity
18085;DHT22;9169;44.492;11.372;2022-11-15T00:00:52;13.30;56.40
18085;DHT22;9169;44.492;11.372;2022-11-15T00:03:20;13.30;56.90
18085;DHT22;9169;44.492;11.372;2022-11-15T00:05:48;13.30;56.30
18085;DHT22;9169;44.492;11.372;2022-11-15T00:08:15;13.30;56.20
18085;DHT22;9169;44.492;11.372;2022-11-15T00:10:42;13.30;56.30
18085;DHT22;9169;44.492;11.372;2022-11-15T00:13:09;13.30;56.40
18085;DHT22;9169;44.492;11.372;2022-11-15T00:15:37;13.30;56.40
18085;DHT22;9169;44.492;11.372;2022-11-15T00:18:04;13.30;56.30
18085;DHT22;9169;44.492;11.372;2022-11-15T00:20:31;13.30;56.30
18085;DHT22;9169;44.492;11.372;2022-11-15T00:22:59;13.30;56.30
18085;DHT22;9169;44.492;11.372;2022-11-15T00:25:26;13.30;56.40
18085;DHT22;9169;44.492;11.372;2022-11-15T00:27:54;13.30;56.40
18085;DHT22;9169;44.492;11.372;2022-11-15T00:30:21;13.30;56.40
18085;DHT22;9169;44.492;11.372;2022-11-15T00:32:48;13.20;56.20
18085;DHT22;9169;44.492;11.372;2022-11-15T00:35:15;13.30;56.40
18085;DHT22;9169;44.492;11.372;2022-11-15T00:37:41;13.30;56.30
18085;DHT22;9169;44.492;11.372;2022-11-15T00:40:10;13.30;56.50
18085;DHT22;9169;44.492;11.372;2022-11-15T00:42:38;13.30;56.50
18085;DHT22;9169;44.492;11.372;2022-11-15T00:45:05;13.30;56.60
18085;DHT22;9169;44.492;11.372;2022-11-15T00:47:32;13.30;56.70
18085;DHT22;9169;44.492;11.372;2022-11-15T00:49:58;13.30;57.10
18085;DHT22;9169;44.492;11.372;2022-11-15T00:52:25;13.30;56.50
18085;DHT22;9169;44.492;11.372;2022-11-15T00:54:52;13.30;56.50
18085;DHT22;9169;44.492;11.372;2022-11-15T00:57:20;13.30;56.60
18085;DHT22;9169;44.492;11.372;2022-11-15T00:59:47;13.30;56.70
18085;DHT22;9169;44.492;11.372;2022-11-15T01:02:13;13.30;56.60
18085;DHT22;9169;44.492;11.372;2022-11-15T01:04:40;13.30;56.60
18085;DHT22;9169;44.492;11.372;2022-11-15T01:07:07;13.30;56.60
18085;DHT22;9169;44.492;11.372;2022-11-15T01:09:34;13.30;56.50
18085;DHT22;9169;44.492;11.372;2022-11-15T01:12:00;13.30;56.50
18085;DHT22;9169;44.492;11.372;2022-11-15T01:14:29;13.30;56.50
18085;DHT22;9169;44.492;11.372;2022-11-15T01:16:55;13.30;56.40
18085;DHT22;9169;44.492;11.372;2022-11-15T01:19:22;13.30;56.40
18085;DHT22;9169;44.492;11.372;2022-11-15T01:21:49;13.30;56.40
18085;DHT22;9169;44.492;11.372;2022-11-15T01:24:16;13.30;56.40
18085;DHT22;9169;44.492;11.372;2022-11-15T01:26:43;13.20;56.30
18085;DHT22;9169;44.492;11.372;2022-11-15T01:29:10;13.20;56.30
18085;DHT22;9169;44.492;11.372;2022-11-15T01:31:38;13.20;56.20
18085;DHT22;9169;44.492;11.372;2022-11-15T01:34:04;13.10;56.10
18085;DHT22;9169;44.492;11.372;2022-11-15T01:36:31;13.10;56.20
18085;DHT22;9169;44.492;11.372;2022-11-15T01:38:58;13.10;56.10
18085;DHT22;9169;44.492;11.372;2022-11-15T01:41:26;13.10;56.10
18085;DHT22;9169;44.492;11.372;2022-11-15T01:43:53;13.10;56.10
18085;DHT22;9169;44.492;11.372;2022-11-15T01:46:25;13.10;56.10
18085;DHT22;9169;44.492;11.372;2022-11-15T01:48:55;13.10;56.20
18085;DHT22;9169;44.492;11.372;2022-11-15T01:51:24;13.10;56.10
18085;DHT22;9169;44.492;11.372;2022-11-15T01:53:52;13.10;56.10
18085;DHT22;9169;44.492;11.372;2022-11-15T01:56:21;13.10;56.00
18085;DHT22;9169;44.492;11.372;2022-11-15T01:58:49;13.10;56.00
18085;DHT22;9169;44.492;11.372;2022-11-15T02:01:17;13.10;56.10
18085;DHT22;9169;44.492;11.372;2022-11-15T02:03:46;13.10;56.00
18085;DHT22;9169;44.492;11.372;2022-11-15T02:06:16;13.10;56.00
18085;DHT22;9169;44.492;11.372;2022-11-15T02:08:43;13.10;56.00
18085;DHT22;9169;44.492;11.372;2022-11-15T02:11:10;13.00;56.10
18085;DHT22;9169;44.492;11.372;2022-11-15T02:13:37;13.00;56.10
18085;DHT22;9169;44.492;11.372;2022-11-15T02:16:08;13.00;56.10
18085;DHT22;9169;44.492;11.372;2022-11-15T02:18:37;13.00;56.10
18085;DHT22;9169;44.492;11.372;2022-11-15T02:21:07;13.00;56.10
18085;DHT22;9169;44.492;11.372;2022-11-15T02:23:43;12.90;56.00
18085;DHT22;9169;44.492;11.372;2022-11-15T02:26:29;12.90;55.90
18085;DHT22;9169;44.492;11.372;2022-11-15T02:28:59;13.00;56.00
18085;DHT22;9169;44.492;11.372;2022-11-15T02:31:29;12.90;55.90
18085;DHT22;9169;44.492;11.372;2022-11-15T02:34:00;12.90;55.90
18085;DHT22;9169;44.492;11.372;2022-11-15T02:36:33;12.90;55.90
18085;DHT22;9169;44.492;11.372;2022-11-15T02:39:03;12.90;55.90
18085;DHT22;9169;44.492;11.372;2022-11-15T02:41:30;12.90;55.90
18085;DHT22;9169;44.492;11.372;2022-11-15T02:44:00;12.90;55.80
18085;DHT22;9169;44.492;11.372;2022-11-15T02:46:28;12.90;55.80
18085;DHT22;9169;44.492;11.372;2022-11-15T02:49:16;12.80;55.70
18085;DHT22;9169;44.492;11.372;2022-11-15T02:51:44;12.80;55.80
18085;DHT22;9169;44.492;11.372;2022-11-15T02:54:12;12.80;55.90
18085;DHT22;9169;44.492;11.372;2022-11-15T02:56:40;12.80;56.00
18085;DHT22;9169;44.492;11.372;2022-11-15T02:59:11;12.80;56.10
18085;DHT22;9169;44.492;11.372;2022-11-15T03:01:43;12.80;56.00
18085;DHT22;9169;44.492;11.372;2022-11-15T03:04:17;12.80;55.90
18085;DHT22;9169;44.492;11.372;2022-11-15T03:06:49;12.80;55.90
18085;DHT22;9169;44.492;11.372;2022-11-15T03:09:21;12.80;55.90
18085;DHT22;9169;44.492;11.372;2022-11-15T03:11:53;12.80;55.90
18085;DHT22;9169;44.492;11.372;2022-11-15T03:14:23;12.70;55.80
18085;DHT22;9169;44.492;11.372;2022-11-15T03:16:55;12.80;55.90
18085;DHT22;9169;44.492;11.372;2022-11-15T03:19:25;12.80;55.90
18085;DHT22;9169;44.492;11.372;2022-11-15T03:21:53;12.80;55.90
18085;DHT22;9169;44.492;11.372;2022-11-15T03:24:21;12.80;55.90
18085;DHT22;9169;44.492;11.372;2022-11-15T03:26:58;12.80;55.80
18085;DHT22;9169;44.492;11.372;2022-11-15T03:29:27;12.80;55.80
18085;DHT22;9169;44.492;11.372;2022-11-15T03:31:55;12.80;55.90
18085;DHT22;9169;44.492;11.372;2022-11-15T03:34:27;12.70;55.80
18085;DHT22;9169;44.492;11.372;2022-11-15T03:36:54;12.80;55.90
18085;DHT22;9169;44.492;11.372;2022-11-15T03:39:21;12.80;55.90
18085;DHT22;9169;44.492;11.372;2022-11-15T03:41:49;12.80;55.90
18085;DHT22;9169;44.492;11.372;2022-11-15T03:44:20;12.80;56.00
18085;DHT22;9169;44.492;11.372;2022-11-15T03:46:54;12.80;55.80
18085;DHT22;9169;44.492;11.372;2022-11-15T03:49:24;12.80;55.80
18085;DHT22;9169;44.492;11.372;2022-11-15T03:51:53;12.80;55.80
18085;DHT22;9169;44.492;11.372;2022-11-15T03:54:22;12.80;56.20
18085;DHT22;9169;44.492;11.372;2022-11-15T03:56:49;12.80;55.60
18085;DHT22;9169;44.492;11.372;2022-11-15T03:59:16;12.80;55.50
18085;DHT22;9169;44.492;11.372;2022-11-15T04:01:42;12.80;55.30
18085;DHT22;9169;44.492;11.372;2022-11-15T04:04:09;12.80;55.20
18085;DHT22;9169;44.492;11.372;2022-11-15T04:06:36;12.80;55.10
18085;DHT22;9169;44.492;11.372;2022-11-15T04:09:04;12.80;55.10
18085;DHT22;9169;44.492;11.372;2022-11-15T04:11:31;12.80;55.10
18085;DHT22;9169;44.492;11.372;2022-11-15T04:13:58;12.80;55.10
18085;DHT22;9169;44.492;11.372;2022-11-15T04:16:25;12.80;55.10
18085;DHT22;9169;44.492;11.372;2022-11-15T04:18:51;12.80;55.10
18085;DHT22;9169;44.492;11.372;2022-11-15T04:21:32;12.80;55.00
18085;DHT22;9169;44.492;11.372;2022-11-15T04:24:17;12.80;54.90
18085;DHT22;9169;44.492;11.372;2022-11-15T04:26:44;12.80;54.80
18085;DHT22;9169;44.492;11.372;2022-11-15T04:29:11;12.80;54.70
18085;DHT22;9169;44.492;11.372;2022-11-15T04:31:55;12.80;54.70
18085;DHT22;9169;44.492;11.372;2022-11-15T04:34:22;12.80;54.80
18085;DHT22;9169;44.492;11.372;2022-11-15T04:36:49;12.80;54.70
18085;DHT22;9169;44.492;11.372;2022-11-15T04:39:35;12.70;54.60
18085;DHT22;9169;44.492;11.372;2022-11-15T04:42:01;12.70;54.50
18085;DHT22;9169;44.492;11.372;2022-11-15T04:44:28;12.80;54.70
18085;DHT22;9169;44.492;11.372;2022-11-15T04:46:55;12.70;54.90
18085;DHT22;9169;44.492;11.372;2022-11-15T04:49:22;12.70;55.00
18085;DHT22;9169;44.492;11.372;2022-11-15T04:51:51;12.70;55.10
18085;DHT22;9169;44.492;11.372;2022-11-15T04:54:18;12.60;55.00
18085;DHT22;9169;44.492;11.372;2022-11-15T04:56:47;12.70;55.20
18085;DHT22;9169;44.492;11.372;2022-11-15T04:59:14;12.60;55.20
18085;DHT22;9169;44.492;11.372;2022-11-15T05:01:41;12.70;55.30
18085;DHT22;9169;44.492;11.372;2022-11-15T05:04:08;12.70;55.30
18085;DHT22;9169;44.492;11.372;2022-11-15T05:06:46;12.70;55.40
18085;DHT22;9169;44.492;11.372;2022-11-15T05:09:13;12.70;55.30
18085;DHT22;9169;44.492;11.372;2022-11-15T05:11:40;12.70;55.30
18085;DHT22;9169;44.492;11.372;2022-11-15T05:14:08;12.70;55.30
18085;DHT22;9169;44.492;11.372;2022-11-15T05:16:35;12.80;55.40
18085;DHT22;9169;44.492;11.372;2022-11-15T05:19:02;12.80;55.50
18085;DHT22;9169;44.492;11.372;2022-11-15T05:21:32;12.80;55.40
18085;DHT22;9169;44.492;11.372;2022-11-15T05:23:59;12.80;55.40
18085;DHT22;9169;44.492;11.372;2022-11-15T05:26:26;12.80;55.50
18085;DHT22;9169;44.492;11.372;2022-11-15T05:29:08;12.80;55.60
18085;DHT22;9169;44.492;11.372;2022-11-15T05:31:37;12.80;55.70
18085;DHT22;9169;44.492;11.372;2022-11-15T05:34:11;12.80;55.80
18085;DHT22;9169;44.492;11.372;2022-11-15T05:36:38;12.80;55.70
18085;DHT22;9169;44.492;11.372;2022-11-15T05:39:07;12.80;55.70
18085;DHT22;9169;44.492;11.372;2022-11-15T05:41:35;12.80;55.60
18085;DHT22;9169;44.492;11.372;2022-11-15T05:44:03;12.90;55.60
18085;DHT22;9169;44.492;11.372;2022-11-15T05:46:31;12.90;55.50
18085;DHT22;9169;44.492;11.372;2022-11-15T05:49:00;12.90;55.40
18085;DHT22;9169;44.492;11.372;2022-11-15T05:51:27;12.90;55.90
18085;DHT22;9169;44.492;11.372;2022-11-15T05:53:55;12.90;55.20
18085;DHT22;9169;44.492;11.372;2022-11-15T05:56:23;12.90;55.20
18085;DHT22;9169;44.492;11.372;2022-11-15T05:58:51;13.00;55.20
18085;DHT22;9169;44.492;11.372;2022-11-15T06:01:18;13.00;55.20
18085;DHT22;9169;44.492;11.372;2022-11-15T06:03:45;13.00;55.20
18085;DHT22;9169;44.492;11.372;2022-11-15T06:06:13;13.00;55.20
18085;DHT22;9169;44.492;11.372;2022-11-15T06:08:40;13.00;55.50
18085;DHT22;9169;44.492;11.372;2022-11-15T06:11:07;12.90;55.50
18085;DHT22;9169;44.492;11.372;2022-11-15T06:13:34;12.90;55.70
18085;DHT22;9169;44.492;11.372;2022-11-15T06:16:01;12.90;55.60
18085;DHT22;9169;44.492;11.372;2022-11-15T06:18:28;12.90;55.70
18085;DHT22;9169;44.492;11.372;2022-11-15T06:20:58;12.90;55.80
18085;DHT22;9169;44.492;11.372;2022-11-15T06:23:26;12.90;55.70
18085;DHT22;9169;44.492;11.372;2022-11-15T06:25:53;12.90;55.70
18085;DHT22;9169;44.492;11.372;2022-11-15T06:28:20;13.00;55.70
18085;DHT22;9169;44.492;11.372;2022-11-15T06:30:47;13.00;55.70
18085;DHT22;9169;44.492;11.372;2022-11-15T06:33:13;13.00;55.60
18085;DHT22;9169;44.492;11.372;2022-11-15T06:35:40;13.00;55.70
18085;DHT22;9169;44.492;11.372;2022-11-15T06:38:08;13.00;55.80
18085;DHT22;9169;44.492;11.372;2022-11-15T06:40:37;13.00;55.80
18085;DHT22;9169;44.492;11.372;2022-11-15T06:43:04;13.00;55.70
18085;DHT22;9169;44.492;11.372;2022-11-15T06:45:32;13.10;55.80
18085;DHT22;9169;44.492;11.372;2022-11-15T06:47:59;13.10;55.60
18085;DHT22;9169;44.492;11.372;2022-11-15T06:50:26;13.10;55.60
18085;DHT22;9169;44.492;11.372;2022-11-15T06:52:53;13.10;55.40
18085;DHT22;9169;44.492;11.372;2022-11-15T06:55:20;13.20;55.40
18085;DHT22;9169;44.492;11.372;2022-11-15T06:57:49;13.20;55.40
18085;DHT22;9169;44.492;11.372;2022-11-15T07:00:16;13.20;55.30
18085;DHT22;9169;44.492;11.372;2022-11-15T07:02:43;13.20;55.30
18085;DHT22;9169;44.492;11.372;2022-11-15T07:05:10;13.20;55.20
18085;DHT22;9169;44.492;11.372;2022-11-15T07:07:37;13.30;55.20
18085;DHT22;9169;44.492;11.372;2022-11-15T07:10:04;13.30;55.40
18085;DHT22;9169;44.492;11.372;2022-11-15T07:12:31;13.30;55.40
18085;DHT22;9169;44.492;11.372;2022-11-15T07:15:00;13.30;55.40
18085;DHT22;9169;44.492;11.372;2022-11-15T07:17:26;13.30;55.50
18085;DHT22;9169;44.492;11.372;2022-11-15T07:19:53;13.30;55.40
18085;DHT22;9169;44.492;11.372;2022-11-15T07:22:20;13.40;55.70
18085;DHT22;9169;44.492;11.372;2022-11-15T07:24:47;13.40;55.90
18085;DHT22;9169;44.492;11.372;2022-11-15T07:27:13;13.40;55.90
18085;DHT22;9169;44.492;11.372;2022-11-15T07:29:40;13.40;55.90
18085;DHT22;9169;44.492;11.372;2022-11-15T07:32:09;13.40;55.80
18085;DHT22;9169;44.492;11.372;2022-11-15T07:34:36;13.40;55.80
18085;DHT22;9169;44.492;11.372;2022-11-15T07:37:02;13.60;56.00
18085;DHT22;9169;44.492;11.372;2022-11-15T07:39:29;13.50;55.90
18085;DHT22;9169;44.492;11.372;2022-11-15T07:41:56;13.50;55.90
18085;DHT22;9169;44.492;11.372;2022-11-15T07:44:37;13.60;55.90
18085;DHT22;9169;44.492;11.372;2022-11-15T07:47:04;13.60;55.90
18085;DHT22;9169;44.492;11.372;2022-11-15T07:49:32;13.60;55.90
18085;DHT22;9169;44.492;11.372;2022-11-15T07:51:59;13.70;56.00
18085;DHT22;9169;44.492;11.372;2022-11-15T07:54:26;13.70;56.00
18085;DHT22;9169;44.492;11.372;2022-11-15T07:56:52;13.70;55.90
18085;DHT22;9169;44.492;11.372;2022-11-15T07:59:19;13.80;56.00
18085;DHT22;9169;44.492;11.372;2022-11-15T08:01:46;13.80;56.00
18085;DHT22;9169;44.492;11.372;2022-11-15T08:04:13;13.80;56.00
18085;DHT22;9169;44.492;11.372;2022-11-15T08:06:41;13.80;56.00
18085;DHT22;9169;44.492;11.372;2022-11-15T08:09:08;13.90;56.10
18085;DHT22;9169;44.492;11.372;2022-11-15T08:11:35;13.90;56.60
18085;DHT22;9169;44.492;11.372;2022-11-15T08:14:02;13.90;56.10
18085;DHT22;9169;44.492;11.372;2022-11-15T08:16:28;14.00;56.00
18085;DHT22;9169;44.492;11.372;2022-11-15T08:18:55;13.90;55.90
18085;DHT22;9169;44.492;11.372;2022-11-15T08:21:22;14.00;56.00
18085;DHT22;9169;44.492;11.372;2022-11-15T08:23:50;14.00;56.00
18085;DHT22;9169;44.492;11.372;2022-11-15T08:26:17;14.00;55.90
18085;DHT22;9169;44.492;11.372;2022-11-15T08:28:44;14.00;56.00
18085;DHT22;9169;44.492;11.372;2022-11-15T08:31:13;14.00;55.90
18085;DHT22;9169;44.492;11.372;2022-11-15T08:33:40;14.10;56.00
18085;DHT22;9169;44.492;11.372;2022-11-15T08:36:15;14.10;55.90
18085;DHT22;9169;44.492;11.372;2022-11-15T08:38:42;14.10;55.90
18085;DHT22;9169;44.492;11.372;2022-11-15T08:41:11;14.10;55.90
18085;DHT22;9169;44.492;11.372;2022-11-15T08:43:38;14.10;55.90
18085;DHT22;9169;44.492;11.372;2022-11-15T08:46:05;14.10;55.90
18085;DHT22;9169;44.492;11.372;2022-11-15T08:48:32;14.10;55.90
18085;DHT22;9169;44.492;11.372;2022-11-15T08:50:59;14.20;56.00
18085;DHT22;9169;44.492;11.372;2022-11-15T08:53:26;14.20;56.00
18085;DHT22;9169;44.492;11.372;2022-11-15T08:55:52;14.20;55.90
18085;DHT22;9169;44.492;11.372;2022-11-15T08:58:21;14.30;56.00
18085;DHT22;9169;44.492;11.372;2022-11-15T09:00:47;14.30;56.00
18085;DHT22;9169;44.492;11.372;2022-11-15T09:03:14;14.30;56.00
18085;DHT22;9169;44.492;11.372;2022-11-15T09:05:41;14.40;56.00
18085;DHT22;9169;44.492;11.372;2022-11-15T09:08:08;14.40;56.00
18085;DHT22;9169;44.492;11.372;2022-11-15T09:10:35;14.40;56.10
18085;DHT22;9169;44.492;11.372;2022-11-15T09:13:02;14.40;56.00
18085;DHT22;9169;44.492;11.372;2022-11-15T09:15:30;14.40;56.00
18085;DHT22;9169;44.492;11.372;2022-11-15T09:17:57;14.40;56.00
18085;DHT22;9169;44.492;11.372;2022-11-15T09:20:24;14.40;56.00
18085;DHT22;9169;44.492;11.372;2022-11-15T09:22:51;14.50;56.20
18085;DHT22;9169;44.492;11.372;2022-11-15T09:25:18;14.50;56.10
18085;DHT22;9169;44.492;11.372;2022-11-15T09:27:44;14.60;56.20
18085;DHT22;9169;44.492;11.372;2022-11-15T09:30:11;14.60;56.20
18085;DHT22;9169;44.492;11.372;2022-11-15T09:32:40;14.60;56.30
18085;DHT22;9169;44.492;11.372;2022-11-15T09:35:07;14.70;56.40
18085;DHT22;9169;44.492;11.372;2022-11-15T09:37:34;14.70;56.40
18085;DHT22;9169;44.492;11.372;2022-11-15T09:40:00;14.70;56.40
18085;DHT22;9169;44.492;11.372;2022-11-15T09:42:31;14.70;56.40
18085;DHT22;9169;44.492;11.372;2022-11-15T09:45:11;14.80;56.50
18085;DHT22;9169;44.492;11.372;2022-11-15T09:48:02;14.80;56.60
18085;DHT22;9169;44.492;11.372;2022-11-15T09:50:34;14.90;56.60
18085;DHT22;9169;44.492;11.372;2022-11-15T09:53:02;14.90;56.70
18085;DHT22;9169;44.492;11.372;2022-11-15T09:55:32;15.00;56.70
18085;DHT22;9169;44.492;11.372;2022-11-15T09:58:03;15.10;56.80
18085;DHT22;9169;44.492;11.372;2022-11-15T10:00:36;15.20;56.80
18085;DHT22;9169;44.492;11.372;2022-11-15T10:03:10;15.20;56.90
18085;DHT22;9169;44.492;11.372;2022-11-15T10:05:38;15.20;56.80
18085;DHT22;9169;44.492;11.372;2022-11-15T10:08:06;15.30;56.90
18085;DHT22;9169;44.492;11.372;2022-11-15T10:10:38;15.30;57.10
18085;DHT22;9169;44.492;11.372;2022-11-15T10:13:09;15.30;57.10
18085;DHT22;9169;44.492;11.372;2022-11-15T10:15:38;15.40;57.20
18085;DHT22;9169;44.492;11.372;2022-11-15T10:18:06;15.50;57.30
18085;DHT22;9169;44.492;11.372;2022-11-15T10:20:38;15.60;57.40
18085;DHT22;9169;44.492;11.372;2022-11-15T10:23:06;15.70;58.00
18085;DHT22;9169;44.492;11.372;2022-11-15T10:25:36;15.80;57.50
18085;DHT22;9169;44.492;11.372;2022-11-15T10:28:06;15.90;57.50
18085;DHT22;9169;44.492;11.372;2022-11-15T10:30:37;16.00;57.60
18085;DHT22;9169;44.492;11.372;2022-11-15T10:33:11;16.00;57.50
18085;DHT22;9169;44.492;11.372;2022-11-15T10:35:40;16.10;57.50
18085;DHT22;9169;44.492;11.372;2022-11-15T10:38:09;16.20;57.50
18085;DHT22;9169;44.492;11.372;2022-11-15T10:40:36;16.30;57.40
18085;DHT22;9169;44.492;11.372;2022-11-15T10:43:12;16.30;57.30
18085;DHT22;9169;44.492;11.372;2022-11-15T10:45:39;16.30;57.10
18085;DHT22;9169;44.492;11.372;2022-11-15T10:48:22;16.40;57.00
18085;DHT22;9169;44.492;11.372;2022-11-15T10:50:51;16.30;56.60
18085;DHT22;9169;44.492;11.372;2022-11-15T10:53:28;16.30;56.70
18085;DHT22;9169;44.492;11.372;2022-11-15T10:55:58;16.30;56.70
18085;DHT22;9169;44.492;11.372;2022-11-15T10:58:33;16.30;56.70
18085;DHT22;9169;44.492;11.372;2022-11-15T11:01:16;16.30;56.70
18085;DHT22;9169;44.492;11.372;2022-11-15T11:03:44;16.30;56.60
18085;DHT22;9169;44.492;11.372;2022-11-15T11:06:13;16.30;56.60
18085;DHT22;9169;44.492;11.372;2022-11-15T11:08:41;16.30;56.60
18085;DHT22;9169;44.492;11.372;2022-11-15T11:11:19;16.30;56.60
18085;DHT22;9169;44.492;11.372;2022-11-15T11:13:46;16.30;56.60
18085;DHT22;9169;44.492;11.372;2022-11-15T11:16:18;16.30;56.70
18085;DHT22;9169;44.492;11.372;2022-11-15T11:18:48;16.30;56.70
18085;DHT22;9169;44.492;11.372;2022-11-15T11:21:19;16.30;56.70
18085;DHT22;9169;44.492;11.372;2022-11-15T11:23:50;16.30;56.80
18085;DHT22;9169;44.492;11.372;2022-11-15T11:26:24;16.30;56.80
18085;DHT22;9169;44.492;11.372;2022-11-15T11:28:56;16.30;56.80
18085;DHT22;9169;44.492;11.372;2022-11-15T11:31:28;16.30;56.70
18085;DHT22;9169;44.492;11.372;2022-11-15T11:33:58;16.30;56.70
18085;DHT22;9169;44.492;11.372;2022-11-15T11:36:32;16.30;56.60
18085;DHT22;9169;44.492;11.372;2022-11-15T11:39:05;16.30;56.60
18085;DHT22;9169;44.492;11.372;2022-11-15T11:41:39;16.30;56.70
18085;DHT22;9169;44.492;11.372;2022-11-15T11:44:14;16.30;56.70
18085;DHT22;9169;44.492;11.372;2022-11-15T11:46:48;16.30;56.80
18085;DHT22;9169;44.492;11.372;2022-11-15T11:49:18;16.30;56.80
18085;DHT22;9169;44.492;11.372;2022-11-15T11:51:47;16.30;56.80
18085;DHT22;9169;44.492;11.372;2022-11-15T11:54:17;16.30;56.70
18085;DHT22;9169;44.492;11.372;2022-11-15T11:56:45;16.30;56.70
18085;DHT22;9169;44.492;11.372;2022-11-15T11:59:27;16.40;56.80
18085;DHT22;9169;44.492;11.372;2022-11-15T12:01:56;16.40;57.30
18085;DHT22;9169;44.492;11.372;2022-11-15T12:04:24;16.40;56.70
18085;DHT22;9169;44.492;11.372;2022-11-15T12:06:57;16.40;56.70
18085;DHT22;9169;44.492;11.372;2022-11-15T12:09:27;16.30;56.60
18085;DHT22;9169;44.492;11.372;2022-11-15T12:11:58;16.30;56.60
18085;DHT22;9169;44.492;11.372;2022-11-15T12:14:29;16.30;56.50
18085;DHT22;9169;44.492;11.372;2022-11-15T12:16:58;16.30;56.60
18085;DHT22;9169;44.492;11.372;2022-11-15T12:19:25;16.30;56.60
18085;DHT22;9169;44.492;11.372;2022-11-15T12:21:54;16.20;56.50
18085;DHT22;9169;44.492;11.372;2022-11-15T12:24:24;16.20;56.50
18085;DHT22;9169;44.492;11.372;2022-11-15T12:26:54;16.20;56.50
18085;DHT22;9169;44.492;11.372;2022-11-15T12:29:24;16.10;56.70
18085;DHT22;9169;44.492;11.372;2022-11-15T12:31:54;16.10;56.70
18085;DHT22;9169;44.492;11.372;2022-11-15T12:40:16;16.00;56.80
18085;DHT22;9169;44.492;11.372;2022-11-15T12:42:56;15.90;57.10
18085;DHT22;9169;44.492;11.372;2022-11-15T12:45:24;15.80;57.00
18085;DHT22;9169;44.492;11.372;2022-11-15T12:47:51;15.80;57.10
18085;DHT22;9169;44.492;11.372;2022-11-15T12:55:46;15.80;56.90
18085;DHT22;9169;44.492;11.372;2022-11-15T12:58:39;15.80;56.80
18085;DHT22;9169;44.492;11.372;2022-11-15T13:01:07;15.90;56.90
18085;DHT22;9169;44.492;11.372;2022-11-15T13:03:34;15.80;57.30
18085;DHT22;9169;44.492;11.372;2022-11-15T13:06:05;15.80;57.50
18085;DHT22;9169;44.492;11.372;2022-11-15T13:08:37;15.70;57.20
18085;DHT22;9169;44.492;11.372;2022-11-15T13:13:51;15.70;57.20
18085;DHT22;9169;44.492;11.372;2022-11-15T13:16:18;15.70;57.10
18085;DHT22;9169;44.492;11.372;2022-11-15T13:18:52;15.70;57.20
18085;DHT22;9169;44.492;11.372;2022-11-15T13:21:20;15.70;57.10
18085;DHT22;9169;44.492;11.372;2022-11-15T13:24:09;15.70;57.10
18085;DHT22;9169;44.492;11.372;2022-11-15T13:26:38;15.70;57.10
18085;DHT22;9169;44.492;11.372;2022-11-15T13:29:12;15.70;57.10
18085;DHT22;9169;44.492;11.372;2022-11-15T13:31:41;15.70;57.20
18085;DHT22;9169;44.492;11.372;2022-11-15T13:34:23;15.70;57.40
18085;DHT22;9169;44.492;11.372;2022-11-15T13:36:50;15.70;57.40
18085;DHT22;9169;44.492;11.372;2022-11-15T13:39:25;15.70;57.50
18085;DHT22;9169;44.492;11.372;2022-11-15T13:41:52;15.70;57.60
18085;DHT22;9169;44.492;11.372;2022-11-15T13:44:21;15.60;57.70
18085;DHT22;9169;44.492;11.372;2022-11-15T13:46:48;15.60;57.90
18085;DHT22;9169;44.492;11.372;2022-11-15T13:49:15;15.60;57.80
18085;DHT22;9169;44.492;11.372;2022-11-15T13:51:44;15.60;57.80
18085;DHT22;9169;44.492;11.372;2022-11-15T13:54:14;15.50;57.70
18085;DHT22;9169;44.492;11.372;2022-11-15T13:56:43;15.50;57.80
18085;DHT22;9169;44.492;11.372;2022-11-15T13:59:13;15.50;57.80
18085;DHT22;9169;44.492;11.372;2022-11-15T14:01:42;15.50;58.00
18085;DHT22;9169;44.492;11.372;2022-11-15T14:04:11;15.40;57.90
18085;DHT22;9169;44.492;11.372;2022-11-15T14:06:43;15.40;57.90
18085;DHT22;9169;44.492;11.372;2022-11-15T14:09:30;16.40;58.80
18085;DHT22;9169;44.492;11.372;2022-11-15T14:11:58;15.40;58.30
18085;DHT22;9169;44.492;11.372;2022-11-15T14:14:25;15.40;57.80
18085;DHT22;9169;44.492;11.372;2022-11-15T14:16:54;15.30;57.80
18085;DHT22;9169;44.492;11.372;2022-11-15T14:19:35;15.30;57.90
18085;DHT22;9169;44.492;11.372;2022-11-15T14:22:13;15.30;57.80
18085;DHT22;9169;44.492;11.372;2022-11-15T14:24:41;15.20;57.80
18085;DHT22;9169;44.492;11.372;2022-11-15T14:27:21;15.30;57.70
18085;DHT22;9169;44.492;11.372;2022-11-15T14:29:48;15.20;57.70
18085;DHT22;9169;44.492;11.372;2022-11-15T14:32:17;15.20;57.60
18085;DHT22;9169;44.492;11.372;2022-11-15T14:34:44;15.20;57.90
18085;DHT22;9169;44.492;11.372;2022-11-15T14:37:22;15.20;57.90
18085;DHT22;9169;44.492;11.372;2022-11-15T14:39:49;15.20;58.00
18085;DHT22;9169;44.492;11.372;2022-11-15T14:42:17;15.20;58.20
18085;DHT22;9169;44.492;11.372;2022-11-15T14:44:44;15.20;58.20
18085;DHT22;9169;44.492;11.372;2022-11-15T14:47:10;15.20;58.30
18085;DHT22;9169;44.492;11.372;2022-11-15T14:49:39;15.20;58.40
18085;DHT22;9169;44.492;11.372;2022-11-15T14:52:07;15.20;58.30
18085;DHT22;9169;44.492;11.372;2022-11-15T14:54:38;15.20;58.30
18085;DHT22;9169;44.492;11.372;2022-11-15T14:57:05;15.20;58.30
18085;DHT22;9169;44.492;11.372;2022-11-15T14:59:31;15.10;58.30
18085;DHT22;9169;44.492;11.372;2022-11-15T15:01:58;15.20;58.30
18085;DHT22;9169;44.492;11.372;2022-11-15T15:04:25;15.20;58.30
18085;DHT22;9169;44.492;11.372;2022-11-15T15:06:54;15.20;58.30
18085;DHT22;9169;44.492;11.372;2022-11-15T15:09:20;15.10;58.70
18085;DHT22;9169;44.492;11.372;2022-11-15T15:11:48;15.10;58.50
18085;DHT22;9169;44.492;11.372;2022-11-15T15:14:14;15.10;58.50
18085;DHT22;9169;44.492;11.372;2022-11-15T15:16:41;15.10;58.40
18085;DHT22;9169;44.492;11.372;2022-11-15T15:19:08;15.10;58.40
18085;DHT22;9169;44.492;11.372;2022-11-15T15:21:35;15.10;58.40
18085;DHT22;9169;44.492;11.372;2022-11-15T15:24:03;15.10;58.30
18085;DHT22;9169;44.492;11.372;2022-11-15T15:26:30;15.10;58.30
18085;DHT22;9169;44.492;11.372;2022-11-15T15:28:59;15.00;58.20
18085;DHT22;9169;44.492;11.372;2022-11-15T15:31:26;15.10;58.30
18085;DHT22;9169;44.492;11.372;2022-11-15T15:33:53;15.10;58.30
18085;DHT22;9169;44.492;11.372;2022-11-15T15:36:20;15.30;58.50
18085;DHT22;9169;44.492;11.372;2022-11-15T15:38:47;15.10;58.30
18085;DHT22;9169;44.492;11.372;2022-11-15T15:41:15;15.10;58.30
18085;DHT22;9169;44.492;11.372;2022-11-15T15:43:42;15.10;58.30
18085;DHT22;9169;44.492;11.372;2022-11-15T15:46:09;15.10;58.30
18085;DHT22;9169;44.492;11.372;2022-11-15T15:48:36;15.10;58.30
18085;DHT22;9169;44.492;11.372;2022-11-15T15:51:04;15.00;58.30
18085;DHT22;9169;44.492;11.372;2022-11-15T15:53:31;15.20;58.60
18085;DHT22;9169;44.492;11.372;2022-11-15T15:56:01;15.00;58.40